createdAt,value
2023-02-19T00:00:03.243Z,11.65
2023-02-19T00:02:42.499Z,9.70
2023-02-19T00:05:10.726Z,10.85
2023-02-19T00:07:38.925Z,11.30
2023-02-19T00:10:07.792Z,10.32
2023-02-19T00:12:35.945Z,11.82
2023-02-19T00:15:06.357Z,11.80
2023-02-19T00:17:34.755Z,12.05
2023-02-19T00:20:03.008Z,11.15
2023-02-19T00:22:31.177Z,17.48
2023-02-19T00:24:59.411Z,13.90
2023-02-19T00:27:27.639Z,11.27
2023-02-19T00:29:55.763Z,10.77
2023-02-19T00:32:25.621Z,8.63
2023-02-19T00:34:53.808Z,9.93
2023-02-19T00:37:21.952Z,7.72
2023-02-19T00:39:50.208Z,7.70
2023-02-19T00:42:18.366Z,6.95
2023-02-19T00:44:46.574Z,7.93
2023-02-19T00:47:14.682Z,6.43
2023-02-19T00:49:44.198Z,8.52
2023-02-19T00:52:12.422Z,6.95
2023-02-19T00:54:40.993Z,7.68
2023-02-19T00:57:09.163Z,9.63
2023-02-19T00:59:37.775Z,8.48
2023-02-19T01:02:06.005Z,7.38
2023-02-19T01:04:34.171Z,7.00
2023-02-19T01:07:05.132Z,6.97
2023-02-19T01:09:33.288Z,7.32
2023-02-19T01:12:02.227Z,8.15
2023-02-19T01:14:30.450Z,9.45
2023-02-19T01:16:58.637Z,8.13
2023-02-19T01:19:27.222Z,8.70
2023-02-19T01:21:55.350Z,8.35
2023-02-19T01:24:24.856Z,8.52
2023-02-19T01:26:53.230Z,9.60
2023-02-19T01:29:21.429Z,8.68
2023-02-19T01:31:49.724Z,8.25
2023-02-19T01:34:18.042Z,11.13
2023-02-19T01:36:46.347Z,7.55
2023-02-19T01:39:14.685Z,6.97
2023-02-19T01:41:44.290Z,6.13
2023-02-19T01:45:12.854Z,6.95
2023-02-19T01:47:41.281Z,7.05
2023-02-19T01:50:09.732Z,4.95
2023-02-19T01:52:38.523Z,6.45
2023-02-19T01:55:13.071Z,5.78
2023-02-19T01:57:47.358Z,6.00
2023-02-19T02:00:19.089Z,5.55
2023-02-19T02:02:52.721Z,7.30
2023-02-19T02:05:33.910Z,7.22
2023-02-19T02:08:22.690Z,10.25
2023-02-19T02:10:51.833Z,9.15
2023-02-19T02:13:22.033Z,12.77
2023-02-19T02:16:01.036Z,11.68
2023-02-19T02:18:41.370Z,11.18
2023-02-19T02:21:36.167Z,11.73
2023-02-19T02:24:25.983Z,13.45
2023-02-19T02:27:13.798Z,17.85
2023-02-19T02:30:30.041Z,18.95
2023-02-19T02:33:07.693Z,19.17
2023-02-19T02:35:43.504Z,17.20
2023-02-19T02:38:14.611Z,19.50
2023-02-19T02:40:45.951Z,16.58
2023-02-19T02:43:15.505Z,19.90
2023-02-19T02:45:45.214Z,17.35
2023-02-19T02:48:31.238Z,19.95
2023-02-19T02:51:06.404Z,16.50
2023-02-19T02:54:06.983Z,18.42
2023-02-19T02:56:36.751Z,19.27
2023-02-19T02:59:09.727Z,21.15
2023-02-19T03:02:04.112Z,18.67
2023-02-19T03:04:59.829Z,18.40
2023-02-19T03:07:32.766Z,17.52
2023-02-19T03:10:03.673Z,17.80
2023-02-19T03:12:51.412Z,18.55
2023-02-19T03:15:40.049Z,16.52
2023-02-19T03:18:31.176Z,20.52
2023-02-19T03:21:00.973Z,24.05
2023-02-19T03:23:51.231Z,20.63
2023-02-19T03:26:20.571Z,18.17
2023-02-19T03:29:12.571Z,18.17
2023-02-19T03:31:46.369Z,20.95
2023-02-19T03:34:25.767Z,22.02
2023-02-19T03:38:09.103Z,25.05
2023-02-19T03:40:46.131Z,23.02
2023-02-19T03:43:22.430Z,24.02
2023-02-19T03:46:04.427Z,25.70
2023-02-19T03:48:36.667Z,22.52
2023-02-19T03:51:32.119Z,22.17
2023-02-19T03:54:12.548Z,20.73
2023-02-19T03:56:48.841Z,19.17
2023-02-19T03:59:23.696Z,21.90
2023-02-19T04:01:58.459Z,25.67
2023-02-19T04:04:32.833Z,21.27
2023-02-19T04:07:02.502Z,23.08
2023-02-19T04:09:38.913Z,23.50
2023-02-19T04:12:14.196Z,20.10
2023-02-19T04:14:47.938Z,21.45
2023-02-19T04:17:23.184Z,26.35
2023-02-19T04:19:53.908Z,26.17
2023-02-19T04:22:24.559Z,21.33
2023-02-19T04:24:56.320Z,26.30
2023-02-19T04:27:24.734Z,22.63
2023-02-19T04:29:52.886Z,24.08
2023-02-19T04:32:21.572Z,21.20
2023-02-19T04:34:49.787Z,20.52
2023-02-19T04:37:17.982Z,23.38
2023-02-19T04:39:47.845Z,23.48
2023-02-19T04:42:15.962Z,21.40
2023-02-19T04:44:44.399Z,23.55
2023-02-19T04:47:12.628Z,20.67
2023-02-19T04:49:40.786Z,22.75
2023-02-19T04:52:08.929Z,21.58
2023-02-19T04:54:37.151Z,24.52
2023-02-19T04:57:06.711Z,25.75
2023-02-19T04:59:35.519Z,26.08
2023-02-19T05:02:03.736Z,23.50
2023-02-19T05:04:32.138Z,27.88
2023-02-19T05:07:00.318Z,25.77
2023-02-19T05:09:28.427Z,22.48
2023-02-19T05:11:56.560Z,24.17
2023-02-19T05:14:26.254Z,24.42
2023-02-19T05:16:54.424Z,24.75
2023-02-19T05:19:22.610Z,29.55
2023-02-19T05:21:50.763Z,28.52
2023-02-19T05:24:18.964Z,23.95
2023-02-19T05:26:48.180Z,22.20
2023-02-19T05:29:16.369Z,20.30
2023-02-19T05:31:48.995Z,23.27
2023-02-19T05:34:17.342Z,26.38
2023-02-19T05:36:45.530Z,26.13
2023-02-19T05:39:13.944Z,21.65
2023-02-19T05:41:42.362Z,28.58
2023-02-19T05:44:12.030Z,23.95
2023-02-19T05:46:40.340Z,33.17
2023-02-19T05:49:09.969Z,20.10
2023-02-19T05:51:38.175Z,22.45
2023-02-19T05:54:06.792Z,25.00
2023-02-19T05:56:37.201Z,29.33
2023-02-19T05:59:09.555Z,25.95
2023-02-19T06:01:37.735Z,27.23
2023-02-19T06:04:06.379Z,24.77
2023-02-19T06:06:37.049Z,24.92
2023-02-19T06:09:05.900Z,27.17
2023-02-19T06:11:34.214Z,23.75
2023-02-19T06:14:02.679Z,23.83
2023-02-19T06:16:33.174Z,21.63
2023-02-19T06:19:04.111Z,30.65
2023-02-19T06:21:32.418Z,22.40
2023-02-19T06:24:07.399Z,16.98
2023-02-19T06:26:36.885Z,26.88
2023-02-19T06:29:05.493Z,23.25
2023-02-19T06:31:33.709Z,27.98
2023-02-19T06:34:05.817Z,30.55
2023-02-19T06:36:34.331Z,35.00
2023-02-19T06:39:04.977Z,22.40
2023-02-19T06:41:33.825Z,28.98
2023-02-19T06:44:02.126Z,27.98
2023-02-19T06:46:30.308Z,38.05
2023-02-19T06:48:58.485Z,27.73
2023-02-19T06:51:29.517Z,24.38
2023-02-19T06:53:58.224Z,31.52
2023-02-19T06:56:30.447Z,24.52
2023-02-19T06:59:00.903Z,27.10
2023-02-19T07:01:30.404Z,23.52
2023-02-19T07:03:58.750Z,29.75
2023-02-19T07:06:28.287Z,27.33
2023-02-19T07:08:58.965Z,32.55
2023-02-19T07:11:32.301Z,26.60
2023-02-19T07:14:03.438Z,27.85
2023-02-19T07:16:32.041Z,30.38
2023-02-19T07:19:01.495Z,31.05
2023-02-19T07:21:30.826Z,30.50
2023-02-19T07:23:59.235Z,25.92
2023-02-19T07:26:28.840Z,23.42
2023-02-19T07:28:57.049Z,29.70
2023-02-19T07:31:26.072Z,29.40
2023-02-19T07:33:54.550Z,24.02
2023-02-19T07:36:24.450Z,20.05
2023-02-19T07:38:56.339Z,27.58
2023-02-19T07:41:25.493Z,25.25
2023-02-19T07:43:59.665Z,31.83
2023-02-19T07:46:28.213Z,25.73
2023-02-19T07:48:56.411Z,24.83
2023-02-19T07:51:24.830Z,29.35
2023-02-19T07:53:53.319Z,28.42
2023-02-19T07:56:21.931Z,24.35
2023-02-19T07:58:50.252Z,26.58
2023-02-19T08:01:43.112Z,24.67
2023-02-19T08:04:12.680Z,28.10
2023-02-19T08:06:42.147Z,23.45
2023-02-19T08:09:10.958Z,28.08
2023-02-19T08:11:56.662Z,31.50
2023-02-19T08:14:27.003Z,21.05
2023-02-19T08:16:56.807Z,28.10
2023-02-19T08:19:25.208Z,27.02
2023-02-19T08:21:53.865Z,25.50
2023-02-19T08:24:22.104Z,21.98
2023-02-19T08:26:50.518Z,27.33
2023-02-19T08:29:18.746Z,28.00
2023-02-19T08:31:47.150Z,26.00
2023-02-19T08:34:16.751Z,29.92
2023-02-19T08:36:45.109Z,24.30
2023-02-19T08:39:13.300Z,26.48
2023-02-19T08:41:41.620Z,26.35
2023-02-19T08:44:09.779Z,25.30
2023-02-19T08:46:37.970Z,26.88
2023-02-19T08:49:06.088Z,33.75
2023-02-19T08:51:35.557Z,28.25
2023-02-19T08:54:05.176Z,28.40
2023-02-19T08:56:33.348Z,26.38
2023-02-19T08:59:01.516Z,27.13
2023-02-19T09:01:29.743Z,27.70
2023-02-19T09:03:58.018Z,32.72
2023-02-19T09:06:26.213Z,24.17
2023-02-19T09:08:55.730Z,24.10
2023-02-19T09:11:23.921Z,28.20
2023-02-19T09:13:52.077Z,30.73
2023-02-19T09:16:20.237Z,29.02
2023-02-19T09:18:48.408Z,26.90
2023-02-19T09:21:16.595Z,29.60
2023-02-19T09:23:44.755Z,26.02
2023-02-19T09:26:14.344Z,28.27
2023-02-19T09:28:43.079Z,25.85
2023-02-19T09:31:14.591Z,25.13
2023-02-19T09:33:47.140Z,23.43
2023-02-19T09:36:18.520Z,21.20
2023-02-19T09:38:46.847Z,21.23
2023-02-19T09:41:31.810Z,22.48
2023-02-19T09:44:01.673Z,26.75
2023-02-19T09:46:34.146Z,21.08
2023-02-19T09:49:08.131Z,23.35
2023-02-19T09:51:40.477Z,25.23
2023-02-19T09:54:21.429Z,24.70
2023-02-19T09:56:51.712Z,23.25
2023-02-19T09:59:25.700Z,24.60
2023-02-19T10:02:01.812Z,18.00
2023-02-19T10:04:30.117Z,24.60
2023-02-19T10:07:03.590Z,24.55
2023-02-19T10:09:32.540Z,23.60
2023-02-19T10:12:02.415Z,27.40
2023-02-19T10:14:37.389Z,23.13
2023-02-19T10:17:07.627Z,22.92
2023-02-19T10:19:37.156Z,17.23
2023-02-19T10:22:05.909Z,20.60
2023-02-19T10:24:34.106Z,21.38
2023-02-19T10:27:03.667Z,20.95
2023-02-19T10:29:31.844Z,17.80
2023-02-19T10:32:23.918Z,16.23
2023-02-19T10:35:11.055Z,17.60
2023-02-19T10:37:45.312Z,19.02
2023-02-19T10:40:18.535Z,14.95
2023-02-19T10:42:50.819Z,24.65
2023-02-19T10:45:24.016Z,18.17
2023-02-19T10:47:52.915Z,25.73
2023-02-19T10:50:29.124Z,24.05
2023-02-19T10:53:00.683Z,24.58
2023-02-19T10:55:35.531Z,23.98
2023-02-19T10:58:26.529Z,24.40
2023-02-19T11:01:13.736Z,22.05
2023-02-19T11:03:42.811Z,21.58
2023-02-19T11:06:14.173Z,28.42
2023-02-19T11:08:53.706Z,22.00
2023-02-19T11:11:34.011Z,22.10
2023-02-19T11:14:13.991Z,25.95
2023-02-19T11:16:45.771Z,23.35
2023-02-19T11:19:30.418Z,27.47
2023-02-19T11:22:00.415Z,24.73
2023-02-19T11:24:35.025Z,20.92
2023-02-19T11:27:07.501Z,27.83
2023-02-19T11:29:37.108Z,24.27
2023-02-19T11:32:29.286Z,25.13
2023-02-19T11:35:19.782Z,20.37
2023-02-19T11:37:59.340Z,23.10
2023-02-19T11:40:40.966Z,19.40
2023-02-19T11:43:29.138Z,21.45
2023-02-19T11:46:09.519Z,21.55
2023-02-19T11:49:14.096Z,22.45
2023-02-19T11:51:55.716Z,21.98
2023-02-19T11:54:45.624Z,19.38
2023-02-19T11:57:32.412Z,22.70
2023-02-19T12:00:19.512Z,20.00
2023-02-19T12:03:10.712Z,18.95
2023-02-19T12:05:57.557Z,17.38
2023-02-19T12:09:24.205Z,15.50
2023-02-19T12:12:16.766Z,18.52
2023-02-19T12:15:25.003Z,16.50
2023-02-19T12:18:36.794Z,19.38
2023-02-19T12:21:22.557Z,23.75
2023-02-19T12:24:17.199Z,24.23
2023-02-19T12:27:00.319Z,24.15
2023-02-19T12:29:52.199Z,23.98
2023-02-19T12:32:44.083Z,27.38
2023-02-19T12:35:39.830Z,26.02
2023-02-19T12:38:24.505Z,22.98
2023-02-19T12:41:21.695Z,29.10
2023-02-19T12:43:56.904Z,25.27
2023-02-19T12:46:33.198Z,20.50
2023-02-19T12:49:10.798Z,22.73
2023-02-19T12:51:45.544Z,20.25
2023-02-19T12:54:23.554Z,23.67
2023-02-19T12:56:58.622Z,21.55
2023-02-19T12:59:33.937Z,23.90
2023-02-19T13:02:14.273Z,21.52
2023-02-19T13:04:50.934Z,20.13
2023-02-19T13:07:25.132Z,17.30
2023-02-19T13:09:59.037Z,19.60
2023-02-19T13:12:31.648Z,23.27
2023-02-19T13:17:39.923Z,20.92
2023-02-19T13:20:21.222Z,20.85
2023-02-19T13:23:18.474Z,17.80
2023-02-19T13:26:09.296Z,18.65
2023-02-19T13:29:10.478Z,15.80
2023-02-19T13:32:01.177Z,12.95
2023-02-19T13:34:49.909Z,18.33
2023-02-19T13:37:18.924Z,18.83
2023-02-19T13:39:50.490Z,16.92
2023-02-19T13:42:32.127Z,17.57
2023-02-19T13:45:01.607Z,19.38
2023-02-19T13:48:00.357Z,17.80
2023-02-19T13:50:30.371Z,23.35
2023-02-19T13:52:59.785Z,18.42
2023-02-19T13:55:53.188Z,18.50
2023-02-19T13:58:57.702Z,18.48
2023-02-19T14:02:14.262Z,17.60
2023-02-19T14:04:52.492Z,18.95
2023-02-19T14:07:54.259Z,23.35
2023-02-19T14:11:04.820Z,18.60
2023-02-19T14:14:06.466Z,20.17
2023-02-19T14:17:04.846Z,18.88
2023-02-19T14:19:55.922Z,23.23
2023-02-19T14:23:15.728Z,18.75
2023-02-19T14:25:50.301Z,19.40
2023-02-19T14:28:33.547Z,22.60
2023-02-19T14:31:10.984Z,20.63
2023-02-19T14:33:44.560Z,21.90
2023-02-19T14:36:23.529Z,16.88
2023-02-19T14:38:55.970Z,21.08
2023-02-19T14:41:25.688Z,17.85
2023-02-19T14:43:58.329Z,20.85
2023-02-19T14:49:07.601Z,18.27
2023-02-19T14:51:40.755Z,22.25
2023-02-19T14:54:17.388Z,16.77
2023-02-19T14:56:49.728Z,21.70
2023-02-19T14:59:27.852Z,19.35
2023-02-19T15:02:02.279Z,17.98
2023-02-19T15:04:36.626Z,19.23
2023-02-19T15:07:09.804Z,20.02
2023-02-19T15:09:44.326Z,17.90
2023-02-19T15:12:18.397Z,17.77
2023-02-19T15:14:50.353Z,19.65
2023-02-19T15:17:27.092Z,16.27
2023-02-19T15:19:56.417Z,18.67
2023-02-19T15:22:28.616Z,17.10
2023-02-19T15:24:57.279Z,16.60
2023-02-19T15:27:26.429Z,16.25
2023-02-19T15:29:55.952Z,15.80
2023-02-19T15:32:27.172Z,18.80
2023-02-19T15:34:56.845Z,16.17
2023-02-19T15:37:26.855Z,14.55
2023-02-19T15:39:56.705Z,17.70
2023-02-19T15:42:29.356Z,19.50
2023-02-19T15:47:40.881Z,17.05
2023-02-19T15:50:14.781Z,20.38
2023-02-19T15:52:50.209Z,20.67
2023-02-19T15:55:31.785Z,20.63
2023-02-19T15:58:10.185Z,17.10
2023-02-19T16:00:45.971Z,20.77
2023-02-19T16:03:19.046Z,18.25
2023-02-19T16:05:58.453Z,19.48
2023-02-19T16:08:31.413Z,18.92
2023-02-19T16:11:02.214Z,21.13
2023-02-19T16:13:34.893Z,19.48
2023-02-19T16:18:47.602Z,24.90
2023-02-19T16:21:21.265Z,19.73
2023-02-19T16:23:54.497Z,19.00
2023-02-19T16:26:23.300Z,22.00
2023-02-19T16:28:53.962Z,23.92
2023-02-19T16:31:24.820Z,22.10
2023-02-19T16:33:54.108Z,17.00
2023-02-19T16:36:41.207Z,20.58
2023-02-19T16:39:33.298Z,20.35
2023-02-19T16:42:19.857Z,19.10
2023-02-19T16:44:48.733Z,24.52
2023-02-19T16:47:34.506Z,23.08
2023-02-19T16:50:12.522Z,20.40
2023-02-19T16:52:52.699Z,21.48
2023-02-19T16:55:21.094Z,17.13
2023-02-19T16:57:49.346Z,21.27
2023-02-19T17:00:19.857Z,19.13
2023-02-19T17:02:52.817Z,20.02
2023-02-19T17:05:22.652Z,16.10
2023-02-19T17:07:51.559Z,19.77
2023-02-19T17:10:23.196Z,20.95
2023-02-19T17:12:51.533Z,23.38
2023-02-19T17:15:20.065Z,20.52
2023-02-19T17:17:50.085Z,19.00
2023-02-19T17:20:28.039Z,22.73
2023-02-19T17:22:57.039Z,19.08
2023-02-19T17:25:25.244Z,19.13
2023-02-19T17:27:53.402Z,16.13
2023-02-19T17:30:28.885Z,16.55
2023-02-19T17:32:58.859Z,23.58
2023-02-19T17:35:27.212Z,33.85
2023-02-19T17:37:55.399Z,16.55
2023-02-19T17:40:33.091Z,15.63
2023-02-19T17:43:01.630Z,20.02
2023-02-19T17:45:29.865Z,19.38
2023-02-19T17:47:59.833Z,15.65
2023-02-19T17:50:30.400Z,13.98
2023-02-19T17:52:59.137Z,18.30
2023-02-19T17:55:27.397Z,15.40
2023-02-19T17:57:55.580Z,14.30
2023-02-19T18:00:26.884Z,13.75
2023-02-19T18:02:55.435Z,11.32
2023-02-19T18:05:25.501Z,11.10
2023-02-19T18:07:53.727Z,13.27
2023-02-19T18:10:24.568Z,11.82
2023-02-19T18:12:53.430Z,11.27
2023-02-19T18:15:26.138Z,14.00
2023-02-19T18:17:54.729Z,12.18
2023-02-19T18:20:27.669Z,9.30
2023-02-19T18:22:57.632Z,11.25
2023-02-19T18:25:26.309Z,10.45
2023-02-19T18:27:54.568Z,9.90
2023-02-19T18:30:24.199Z,11.32
2023-02-19T18:32:53.085Z,11.23
2023-02-19T18:35:23.264Z,12.50
2023-02-19T18:37:53.168Z,10.43
2023-02-19T18:40:22.487Z,8.85
2023-02-19T18:42:50.663Z,15.80
2023-02-19T18:45:19.224Z,11.40
2023-02-19T18:47:48.448Z,9.55
2023-02-19T18:50:17.727Z,11.63
2023-02-19T18:52:47.521Z,11.98
2023-02-19T18:55:15.761Z,9.70
2023-02-19T18:57:44.037Z,12.25
2023-02-19T19:00:18.292Z,12.27
2023-02-19T19:02:49.781Z,10.88
2023-02-19T19:05:22.946Z,12.95
2023-02-19T19:07:54.046Z,13.18
2023-02-19T19:10:22.551Z,11.93
2023-02-19T19:12:51.621Z,13.02
2023-02-19T19:15:20.277Z,11.60
2023-02-19T19:17:49.492Z,17.27
2023-02-19T19:20:19.811Z,15.05
2023-02-19T19:22:52.170Z,13.65
2023-02-19T19:25:21.514Z,12.05
2023-02-19T19:27:51.597Z,11.82
2023-02-19T19:30:20.945Z,11.65
2023-02-19T19:32:50.246Z,16.27
2023-02-19T19:35:19.807Z,14.38
2023-02-19T19:37:48.417Z,14.25
2023-02-19T19:40:19.396Z,15.07
2023-02-19T19:42:47.803Z,15.18
2023-02-19T19:45:16.487Z,12.82
2023-02-19T19:47:44.665Z,14.90
2023-02-19T19:50:14.386Z,14.32
2023-02-19T19:52:42.797Z,12.75
2023-02-19T19:55:11.127Z,15.65
2023-02-19T19:57:41.052Z,14.43
2023-02-19T20:00:13.686Z,13.90
2023-02-19T20:02:41.878Z,14.60
2023-02-19T20:05:10.316Z,15.43
2023-02-19T20:07:38.508Z,16.88
2023-02-19T20:10:08.709Z,15.38
2023-02-19T20:12:36.863Z,15.48
2023-02-19T20:15:07.362Z,14.95
2023-02-19T20:17:35.576Z,14.65
2023-02-19T20:20:04.180Z,17.33
2023-02-19T20:22:32.416Z,18.10
2023-02-19T20:25:00.695Z,18.63
2023-02-19T20:27:28.918Z,17.77
2023-02-19T20:29:57.170Z,16.73
2023-02-19T20:32:29.039Z,21.40
2023-02-19T20:34:57.238Z,21.30
2023-02-19T20:37:25.391Z,15.18
2023-02-19T20:39:53.558Z,17.00
2023-02-19T20:42:22.007Z,18.02
2023-02-19T20:44:50.268Z,17.30
2023-02-19T20:47:20.278Z,19.30
2023-02-19T20:49:51.589Z,16.35
2023-02-19T20:52:20.708Z,16.73
2023-02-19T20:54:48.947Z,16.38
2023-02-19T20:57:17.066Z,15.52
2023-02-19T20:59:45.283Z,20.77
2023-02-19T21:02:19.313Z,19.58
2023-02-19T21:04:49.136Z,16.33
2023-02-19T21:07:20.361Z,17.08
2023-02-19T21:09:52.019Z,18.20
2023-02-19T21:12:22.300Z,18.23
2023-02-19T21:14:51.098Z,19.05
2023-02-19T21:17:19.369Z,14.27
2023-02-19T21:19:50.327Z,18.60
2023-02-19T21:22:18.631Z,14.77
2023-02-19T21:24:49.490Z,15.98
2023-02-19T21:27:17.790Z,14.02
2023-02-19T21:29:46.844Z,16.25
2023-02-19T21:32:15.217Z,15.05
2023-02-19T21:34:43.839Z,17.35
2023-02-19T21:37:13.358Z,17.23
2023-02-19T21:39:42.786Z,18.88
2023-02-19T21:42:11.142Z,15.57
2023-02-19T21:44:39.686Z,16.35
2023-02-19T21:47:08.755Z,18.13
2023-02-19T21:49:41.815Z,16.58
2023-02-19T21:52:11.051Z,16.65
2023-02-19T21:54:40.703Z,15.30
2023-02-19T21:57:09.356Z,20.23
2023-02-19T21:59:37.596Z,16.60
2023-02-19T22:02:05.786Z,18.15
2023-02-19T22:04:33.947Z,21.58
2023-02-19T22:07:02.135Z,17.10
2023-02-19T22:09:30.262Z,23.00
2023-02-19T22:11:59.883Z,19.13
2023-02-19T22:14:28.040Z,15.90
2023-02-19T22:16:56.311Z,19.27
2023-02-19T22:19:24.543Z,23.08
2023-02-19T22:21:52.719Z,21.25
2023-02-19T22:24:22.746Z,21.48
2023-02-19T22:26:55.857Z,23.02
2023-02-19T22:29:26.291Z,20.95
2023-02-19T22:31:56.377Z,23.08
2023-02-19T22:34:24.836Z,22.85
2023-02-19T22:36:53.056Z,24.73
2023-02-19T22:39:23.978Z,22.30
2023-02-19T22:41:55.356Z,21.92
2023-02-19T22:44:26.955Z,23.77
2023-02-19T22:46:57.728Z,23.40
2023-02-19T22:49:26.243Z,22.48
2023-02-19T22:52:03.022Z,24.17
2023-02-19T22:54:31.378Z,25.15
2023-02-19T22:56:59.654Z,21.67
2023-02-19T22:59:29.295Z,19.17
2023-02-19T23:01:57.934Z,20.27
2023-02-19T23:04:27.053Z,17.80
2023-02-19T23:06:55.323Z,21.10
2023-02-19T23:09:27.083Z,20.08
2023-02-19T23:12:01.990Z,19.00
2023-02-19T23:14:31.582Z,22.02
2023-02-19T23:17:00.115Z,17.25
2023-02-19T23:19:28.558Z,22.23
2023-02-19T23:21:57.048Z,22.65
2023-02-19T23:24:25.350Z,22.80
2023-02-19T23:26:54.871Z,19.25
2023-02-19T23:29:26.623Z,18.88
2023-02-19T23:31:56.154Z,18.03
2023-02-19T23:34:25.297Z,21.20
2023-02-19T23:36:55.320Z,24.60
2023-02-19T23:39:23.816Z,17.77
2023-02-19T23:41:55.466Z,19.98
2023-02-19T23:44:25.948Z,19.08
2023-02-19T23:46:55.422Z,22.27
2023-02-19T23:49:23.885Z,23.88
2023-02-19T23:51:52.237Z,23.45
2023-02-19T23:54:20.417Z,23.10
2023-02-19T23:56:48.527Z,22.38
2023-02-19T23:59:16.702Z,24.15
